Time;durP1;ratioP1;P1;durP2;ratioP2;P2;SDS_P1;SDS_P2;PMS_P1;PMS_P2;Temp;Humidity;BMP_temperature;BMP_pressure;BME280_temperature;BME280_humidity;BME280_pressure;Samples;Min_cycle;Max_cycle;Signal;HPM_P1;HPM_P2
2023/03/13 00:00:17;;;;;;;;;1.00;0.50;;;;;10.59;72.09;98765.19;5095578;28;8830;-61
2023/03/13 00:02:45;;;;;;;;;1.00;1.00;;;;;10.63;71.60;98753.25;5095255;28;8810;-62
2023/03/13 00:05:13;;;;;;;;;1.50;1.00;;;;;10.65;72.06;98747.78;5095183;28;8826;-59
2023/03/13 00:07:40;;;;;;;;;3.00;3.00;;;;;10.66;72.15;98730.81;5095172;28;8825;-61
2023/03/13 00:10:08;;;;;;;;;1.00;1.00;;;;;10.65;71.69;98740.63;5095092;28;8818;-62
2023/03/13 00:12:36;;;;;;;;;1.50;1.00;;;;;10.66;71.87;98726.34;5094545;28;8809;-62
2023/03/13 00:15:03;;;;;;;;;2.00;2.00;;;;;10.68;72.08;98710.19;5078910;28;8852;-61
2023/03/13 00:17:32;;;;;;;;;1.50;1.00;;;;;10.69;72.05;98706.56;5095043;28;8841;-61
2023/03/13 00:20:00;;;;;;;;;2.00;2.00;;;;;10.70;71.53;98719.69;5095003;28;8807;-62
2023/03/13 00:22:28;;;;;;;;;2.00;0.50;;;;;10.73;72.21;98699.94;5095151;28;8817;-63
2023/03/13 00:24:57;;;;;;;;;2.00;1.00;;;;;10.73;71.89;98691.94;5095383;28;8840;-62
2023/03/13 00:27:25;;;;;;;;;3.50;3.50;;;;;10.72;71.84;98680.47;5094540;28;8807;-62
2023/03/13 00:29:53;;;;;;;;;0.75;0.75;;;;;10.74;72.21;98681.16;5095031;28;8825;-61
2023/03/13 00:32:21;;;;;;;;;3.00;2.00;;;;;10.76;72.45;98692.47;5095342;28;9510;-61
2023/03/13 00:34:48;;;;;;;;;1.00;1.00;;;;;10.79;72.46;98689.53;5095210;28;8895;-61
2023/03/13 00:37:16;;;;;;;;;3.00;2.50;;;;;10.83;72.57;98680.22;5098421;28;8806;-61
2023/03/13 00:39:44;;;;;;;;;2.50;2.50;;;;;10.86;71.89;98679.91;5099184;28;8860;-59
2023/03/13 00:42:12;;;;;;;;;3.00;1.00;;;;;10.89;71.97;98676.09;5099187;28;8837;-60
2023/03/13 00:44:39;;;;;;;;;2.50;2.50;;;;;10.92;71.70;98678.47;5098643;28;8825;-59
2023/03/13 00:47:07;;;;;;;;;0.50;0.50;;;;;10.95;71.87;98686.13;5098546;28;8862;-60
2023/03/13 00:49:34;;;;;;;;;1.50;1.00;;;;;10.96;72.02;98685.13;5098405;28;9547;-61
2023/03/13 00:52:02;;;;;;;;;4.00;1.50;;;;;10.96;71.84;98672.66;5098067;28;8903;-61
2023/03/13 00:54:30;;;;;;;;;1.00;1.00;;;;;10.95;72.08;98664.81;5098442;28;8815;-61
2023/03/13 00:56:57;;;;;;;;;1.50;1.00;;;;;10.93;72.44;98653.50;5098125;28;8935;-61
2023/03/13 00:59:25;;;;;;;;;3.00;2.00;;;;;10.84;72.50;98660.56;5097936;28;8845;-61
2023/03/13 01:01:53;;;;;;;;;1.00;0.25;;;;;10.73;73.08;98658.19;5097975;28;8818;-60
2023/03/13 01:04:21;;;;;;;;;1.00;1.00;;;;;10.59;73.42;98655.22;5097557;28;8810;-61
2023/03/13 01:06:48;;;;;;;;;2.00;2.00;;;;;10.48;73.57;98650.94;5097708;28;8821;-58
2023/03/13 01:09:16;;;;;;;;;1.00;1.00;;;;;10.41;74.30;98638.44;5097164;28;8814;-59
2023/03/13 01:11:44;;;;;;;;;2.00;2.00;;;;;10.37;74.11;98642.38;5097740;28;8826;-59
2023/03/13 01:14:12;;;;;;;;;1.00;1.00;;;;;10.37;74.29;98634.38;5097550;28;8821;-60
2023/03/13 01:16:40;;;;;;;;;1.00;1.00;;;;;10.38;74.48;98625.41;5097653;28;8829;-59
2023/03/13 01:19:07;;;;;;;;;3.50;3.25;;;;;10.37;74.31;98607.78;5096412;28;8852;-60
2023/03/13 01:21:39;;;;;;;;;1.00;0.75;;;;;10.38;74.52;98596.13;5077555;28;8839;-60
2023/03/13 01:24:06;;;;;;;;;0.00;0.00;;;;;10.37;74.44;98592.66;5082950;28;8878;-61
2023/03/13 01:26:34;;;;;;;;;1.00;1.00;;;;;10.34;74.45;98581.50;5097773;28;8806;-59
2023/03/13 01:29:02;;;;;;;;;1.50;1.00;;;;;10.26;75.04;98584.91;5098023;28;8910;-61
2023/03/13 01:31:30;;;;;;;;;0.50;0.00;;;;;10.17;75.38;98583.16;5097994;28;8842;-59
2023/03/13 01:33:57;;;;;;;;;0.00;0.00;;;;;10.12;75.17;98574.81;5096940;28;8865;-61
2023/03/13 01:36:25;;;;;;;;;2.00;2.00;;;;;10.09;75.65;98569.78;5081172;28;8815;-61
2023/03/13 01:38:53;;;;;;;;;2.50;2.50;;;;;10.11;75.19;98554.50;5097247;28;8826;-61
2023/03/13 01:41:20;;;;;;;;;0.50;0.00;;;;;10.13;75.80;98541.91;5096542;28;9514;-60
2023/03/13 01:43:48;;;;;;;;;1.00;1.00;;;;;10.17;75.75;98537.13;5097825;28;8888;-60
2023/03/13 01:46:16;;;;;;;;;2.00;0.75;;;;;10.21;75.86;98533.16;5096709;28;8860;-58
2023/03/13 01:48:44;;;;;;;;;2.00;1.00;;;;;10.28;75.36;98539.53;5096820;28;8809;-61
2023/03/13 01:51:12;;;;;;;;;1.00;0.50;;;;;10.34;75.64;98521.16;5096665;28;8914;-61
2023/03/13 01:53:40;;;;;;;;;2.75;2.50;;;;;10.41;74.88;98529.31;5097445;28;8810;-59
2023/03/13 01:56:08;;;;;;;;;2.00;1.00;;;;;10.47;75.25;98526.88;5096707;28;8850;-59
2023/03/13 01:58:35;;;;;;;;;3.50;2.50;;;;;10.51;74.83;98508.75;5096867;28;8821;-61
2023/03/13 02:01:03;;;;;;;;;3.50;3.00;;;;;10.52;74.94;98505.94;5097022;28;8825;-60
2023/03/13 02:03:30;;;;;;;;;2.25;1.75;;;;;10.51;75.57;98493.63;5096900;28;8829;-60
2023/03/13 02:05:58;;;;;;;;;2.25;1.00;;;;;10.46;75.48;98489.78;5096849;28;8852;-59
2023/03/13 02:08:26;;;;;;;;;3.25;3.25;;;;;10.47;75.76;98494.13;5096574;28;8829;-61
2023/03/13 02:10:53;;;;;;;;;2.25;2.25;;;;;10.48;75.83;98461.19;5096701;28;8813;-60
2023/03/13 02:13:21;;;;;;;;;0.75;0.00;;;;;10.50;75.62;98476.00;5096763;28;8805;-59
2023/03/13 02:15:49;;;;;;;;;0.00;0.00;;;;;10.50;76.11;98467.19;5096672;28;8856;-60
2023/03/13 02:18:17;;;;;;;;;1.00;1.00;;;;;10.46;76.43;98442.72;5096647;28;8805;-61
2023/03/13 02:20:45;;;;;;;;;1.00;1.00;;;;;10.46;76.52;98450.69;5096424;28;8825;-60
2023/03/13 02:23:13;;;;;;;;;1.50;1.00;;;;;10.46;76.75;98448.03;5096525;28;8813;-61
2023/03/13 02:25:40;;;;;;;;;1.00;1.00;;;;;10.44;76.37;98412.75;5096318;28;8825;-61
2023/03/13 02:28:08;;;;;;;;;1.00;1.00;;;;;10.35;76.87;98434.16;5096998;28;8846;-59
2023/03/13 02:30:36;;;;;;;;;1.00;1.00;;;;;10.25;77.65;98444.09;5097029;28;8838;-59
2023/03/13 02:33:04;;;;;;;;;1.75;1.75;;;;;10.20;77.36;98436.56;5096646;28;8830;-61
2023/03/13 02:35:31;;;;;;;;;2.00;2.00;;;;;10.15;77.98;98406.94;5096916;28;8899;-61
2023/03/13 02:37:59;;;;;;;;;0.75;0.75;;;;;10.11;78.29;98421.53;5097039;28;8821;-59
2023/03/13 02:40:27;;;;;;;;;2.25;0.75;;;;;10.06;78.58;98402.56;5096792;28;8818;-60
2023/03/13 02:42:55;;;;;;;;;1.00;1.00;;;;;10.00;78.78;98413.78;5096654;28;8846;-60
2023/03/13 02:45:23;;;;;;;;;1.00;1.00;;;;;9.96;78.82;98400.97;5096708;28;8823;-59
2023/03/13 02:47:51;;;;;;;;;4.00;1.00;;;;;9.89;79.50;98379.50;5096966;28;8900;-58
2023/03/13 02:50:19;;;;;;;;;0.25;0.25;;;;;9.83;80.05;98384.59;5096582;28;8846;-59
2023/03/13 02:52:46;;;;;;;;;1.00;1.00;;;;;9.82;80.15;98378.44;5096787;28;9573;-59
2023/03/13 02:55:16;;;;;;;;;1.00;1.00;;;;;9.81;80.73;98360.81;5096698;28;8848;-57
2023/03/13 02:57:44;;;;;;;;;0.25;0.25;;;;;9.84;80.54;98359.66;5096148;28;8818;-59
2023/03/13 03:00:12;;;;;;;;;0.50;0.50;;;;;9.87;80.22;98356.72;5096202;28;8899;-59
2023/03/13 03:02:39;;;;;;;;;1.00;1.00;;;;;9.89;80.45;98347.59;5095952;28;8845;-59
2023/03/13 03:05:07;;;;;;;;;1.00;1.00;;;;;9.93;80.85;98359.56;5095986;28;8838;-58
2023/03/13 03:07:35;;;;;;;;;3.50;2.00;;;;;9.96;81.13;98358.44;5096820;28;9508;-59
2023/03/13 03:10:02;;;;;;;;;0.25;0.25;;;;;9.98;80.97;98346.66;5096294;28;8803;-59
2023/03/13 03:12:30;;;;;;;;;1.00;1.00;;;;;10.01;81.22;98364.13;5095804;28;8842;-59
2023/03/13 03:14:57;;;;;;;;;0.50;0.50;;;;;10.03;81.59;98349.69;5096379;28;9520;-61
2023/03/13 03:17:25;;;;;;;;;0.00;0.00;;;;;10.04;81.74;98331.91;5096044;28;9534;-61
2023/03/13 03:19:53;;;;;;;;;0.50;0.25;;;;;10.03;81.79;98333.72;5095990;28;8892;-59
2023/03/13 03:22:21;;;;;;;;;3.00;1.50;;;;;10.06;81.74;98336.09;5096104;28;8821;-59
2023/03/13 03:24:48;;;;;;;;;0.50;0.50;;;;;10.09;81.76;98311.00;5095894;28;8819;-62
2023/03/13 03:27:28;;;;;;;;;0.50;0.50;;;;;10.12;82.09;98330.13;5096367;28;8917;-61
2023/03/13 03:29:56;;;;;;;;;3.00;1.00;;;;;10.22;81.58;98332.66;5096026;28;9503;-61
2023/03/13 03:32:24;;;;;;;;;0.75;0.00;;;;;10.27;81.51;98296.63;5095982;28;8833;-60
2023/03/13 03:34:51;;;;;;;;;1.00;0.00;;;;;10.33;81.90;98309.25;5095566;28;8859;-59
2023/03/13 03:37:19;;;;;;;;;0.00;0.00;;;;;10.36;81.21;98314.28;5095769;28;8810;-58
2023/03/13 03:39:46;;;;;;;;;0.25;0.25;;;;;10.37;81.10;98299.97;5096136;28;9525;-61
2023/03/13 03:42:14;;;;;;;;;1.25;0.75;;;;;10.40;81.77;98293.50;5095747;28;8816;-61
2023/03/13 03:44:42;;;;;;;;;0.25;0.00;;;;;10.46;81.40;98309.66;5095407;28;8880;-61
2023/03/13 03:47:09;;;;;;;;;2.00;1.00;;;;;10.51;81.28;98290.53;5095917;28;8894;-60
2023/03/13 03:49:37;;;;;;;;;3.00;1.00;;;;;10.51;81.76;98269.25;5095559;28;8866;-60
2023/03/13 03:52:05;;;;;;;;;0.00;0.00;;;;;10.41;82.08;98295.16;5095559;28;8835;-62
2023/03/13 03:54:33;;;;;;;;;1.00;1.00;;;;;10.31;82.85;98281.19;5094858;28;8852;-61
2023/03/13 03:57:01;;;;;;;;;1.00;1.00;;;;;10.24;83.08;98299.59;5094946;28;8809;-61
2023/03/13 03:59:29;;;;;;;;;0.50;0.50;;;;;10.21;82.95;98297.25;5093683;28;8799;-60
2023/03/13 04:01:57;;;;;;;;;1.00;1.00;;;;;10.19;82.89;98307.22;5065504;28;8819;-60
2023/03/13 04:04:25;;;;;;;;;0.00;0.00;;;;;10.18;83.07;98294.09;5095352;28;8810;-60
2023/03/13 04:06:53;;;;;;;;;0.00;0.00;;;;;10.18;83.47;98305.53;5095722;28;8834;-60
2023/03/13 04:09:20;;;;;;;;;1.00;1.00;;;;;10.22;83.35;98293.59;5096008;28;8799;-60
2023/03/13 04:11:48;;;;;;;;;1.00;1.00;;;;;10.29;83.15;98280.47;5095764;28;8812;-61
2023/03/13 04:14:15;;;;;;;;;0.00;0.00;;;;;10.34;83.46;98287.00;5087938;28;8810;-58
2023/03/13 04:16:43;;;;;;;;;3.00;0.75;;;;;10.43;83.41;98288.69;5094885;28;8824;-61
2023/03/13 04:19:11;;;;;;;;;0.50;0.50;;;;;10.52;82.86;98276.22;5080793;28;8836;-61
2023/03/13 04:21:39;;;;;;;;;0.75;0.25;;;;;10.59;82.85;98278.09;5080983;28;8855;-61
2023/03/13 04:24:07;;;;;;;;;0.00;0.00;;;;;10.67;82.59;98251.50;5097372;28;8798;-61
2023/03/13 04:26:34;;;;;;;;;0.00;0.00;;;;;10.76;82.46;98295.75;5091804;28;8814;-58
2023/03/13 04:29:02;;;;;;;;;1.00;0.25;;;;;10.86;82.02;98291.09;5078742;28;8833;-60
2023/03/13 04:31:29;;;;;;;;;0.00;0.00;;;;;10.92;82.09;98282.47;5078809;28;8835;-60
2023/03/13 04:33:57;;;;;;;;;0.00;0.00;;;;;10.98;81.88;98263.16;5078670;28;8838;-59
2023/03/13 04:36:25;;;;;;;;;0.00;0.00;;;;;11.05;82.09;98285.47;5079292;28;8853;-60
2023/03/13 04:38:52;;;;;;;;;0.00;0.00;;;;;11.11;82.51;98268.84;5078781;28;8904;-61
2023/03/13 04:41:20;;;;;;;;;0.50;0.50;;;;;11.15;82.11;98264.81;5078411;28;8842;-61
2023/03/13 04:43:49;;;;;;;;;1.00;1.00;;;;;11.19;82.16;98263.50;5079057;28;8826;-60
2023/03/13 04:46:17;;;;;;;;;0.00;0.00;;;;;11.23;82.48;98283.47;5078587;28;8840;-60
2023/03/13 04:48:45;;;;;;;;;1.00;1.00;;;;;11.26;82.20;98245.00;5078306;28;8824;-61
2023/03/13 04:51:13;;;;;;;;;0.00;0.00;;;;;11.27;82.55;98258.19;5078352;28;8820;-61
2023/03/13 04:53:41;;;;;;;;;3.00;3.00;;;;;11.21;82.37;98242.84;5078254;28;8859;-60
2023/03/13 04:56:08;;;;;;;;;0.00;0.00;;;;;11.08;82.30;98253.16;5078293;28;8820;-59
2023/03/13 04:58:36;;;;;;;;;0.00;0.00;;;;;10.97;82.94;98245.53;5090192;28;8845;-59
2023/03/13 05:01:04;;;;;;;;;1.00;0.00;;;;;10.89;83.34;98250.84;5098484;28;9478;-58
2023/03/13 05:03:31;;;;;;;;;0.00;0.00;;;;;10.82;84.24;98283.59;5097679;28;8826;-58
2023/03/13 05:06:00;;;;;;;;;0.25;0.25;;;;;10.78;84.64;98263.66;5098339;28;8810;-59
2023/03/13 05:08:28;;;;;;;;;0.25;0.25;;;;;10.74;84.64;98267.63;5098539;28;8810;-59
2023/03/13 05:10:56;;;;;;;;;0.25;0.25;;;;;10.71;84.54;98257.31;5098058;28;8891;-58
2023/03/13 05:13:24;;;;;;;;;0.00;0.00;;;;;10.70;84.70;98245.81;5098347;28;8852;-58
2023/03/13 05:15:51;;;;;;;;;0.00;0.00;;;;;10.70;84.68;98235.19;5097532;28;8850;-58
2023/03/13 05:18:19;;;;;;;;;0.00;0.00;;;;;10.71;85.27;98234.16;5097880;28;8791;-58
2023/03/13 05:20:47;;;;;;;;;0.00;0.00;;;;;10.73;85.40;98244.66;5097107;28;8853;-56
2023/03/13 05:23:15;;;;;;;;;0.50;0.50;;;;;10.72;86.05;98243.84;5096346;28;8817;-56
2023/03/13 05:25:42;;;;;;;;;0.00;0.00;;;;;10.77;85.46;98236.19;5096802;28;8849;-57
2023/03/13 05:28:10;;;;;;;;;0.50;0.50;;;;;10.83;85.63;98227.53;5097132;28;8814;-57
2023/03/13 05:30:38;;;;;;;;;0.00;0.00;;;;;10.91;86.03;98235.53;5096561;28;8925;-59
2023/03/13 05:33:06;;;;;;;;;2.50;1.00;;;;;10.97;85.19;98224.22;5096382;28;8906;-58
2023/03/13 05:35:34;;;;;;;;;1.50;1.00;;;;;11.06;85.09;98217.88;5096810;28;8814;-58
2023/03/13 05:38:01;;;;;;;;;0.00;0.00;;;;;11.15;85.34;98227.53;5095831;28;8976;-58
2023/03/13 05:40:29;;;;;;;;;1.00;0.75;;;;;11.24;84.88;98205.19;5097301;28;8817;-57
2023/03/13 05:42:58;;;;;;;;;1.50;1.00;;;;;11.31;84.46;98205.38;5097167;28;8857;-57
2023/03/13 05:45:26;;;;;;;;;1.00;1.00;;;;;11.36;84.60;98203.88;5097656;28;8841;-58
2023/03/13 05:47:53;;;;;;;;;1.00;1.00;;;;;11.40;84.67;98205.19;5096974;28;8830;-57
2023/03/13 05:50:21;;;;;;;;;1.00;1.00;;;;;11.46;84.27;98209.81;5097006;28;8872;-58
2023/03/13 05:52:49;;;;;;;;;1.00;1.00;;;;;11.52;84.54;98219.81;5096829;28;8827;-59
2023/03/13 05:55:17;;;;;;;;;0.75;0.75;;;;;11.60;84.23;98205.69;5097108;28;9472;-59
2023/03/13 05:57:45;;;;;;;;;1.00;1.00;;;;;11.64;83.83;98210.50;5096557;28;8821;-57
2023/03/13 06:00:13;;;;;;;;;2.50;2.50;;;;;11.68;83.80;98219.81;5096085;28;8872;-58
2023/03/13 06:02:40;;;;;;;;;1.00;1.00;;;;;11.74;83.85;98202.31;5096820;28;8833;-59
2023/03/13 06:05:08;;;;;;;;;0.00;0.00;;;;;11.75;83.41;98194.13;5095973;28;8817;-59
2023/03/13 06:07:36;;;;;;;;;1.00;1.00;;;;;11.80;83.91;98207.78;5095867;28;8838;-58
2023/03/13 06:10:04;;;;;;;;;0.00;0.00;;;;;11.82;83.13;98207.63;5095540;28;8834;-59
2023/03/13 06:12:32;;;;;;;;;1.00;1.00;;;;;11.83;83.48;98217.28;5095688;28;8993;-59
2023/03/13 06:15:00;;;;;;;;;0.75;0.75;;;;;11.84;82.81;98227.75;5095649;28;8846;-60
2023/03/13 06:17:27;;;;;;;;;0.75;0.25;;;;;11.86;83.69;98224.91;5095827;28;8830;-60
2023/03/13 06:19:55;;;;;;;;;1.00;0.00;;;;;11.88;83.21;98215.75;5095511;28;8830;-60
2023/03/13 06:22:23;;;;;;;;;0.25;0.25;;;;;11.90;83.20;98212.91;5094838;28;8863;-59
2023/03/13 06:24:51;;;;;;;;;3.25;0.50;;;;;11.90;83.12;98197.72;5094915;28;8826;-60
2023/03/13 06:27:19;;;;;;;;;1.00;0.25;;;;;11.90;82.98;98202.25;5094583;28;8829;-60
2023/03/13 06:29:46;;;;;;;;;1.00;1.00;;;;;11.91;83.47;98201.25;5094295;28;8826;-60
2023/03/13 06:32:14;;;;;;;;;0.75;0.75;;;;;11.92;83.21;98201.06;5094443;28;8854;-61
2023/03/13 06:34:42;;;;;;;;;1.00;1.00;;;;;11.96;83.39;98215.72;5094532;28;9724;-60
2023/03/13 06:37:10;;;;;;;;;2.00;2.00;;;;;11.99;82.97;98202.03;5093922;28;8834;-60
2023/03/13 06:39:38;;;;;;;;;0.00;0.00;;;;;12.03;82.99;98214.03;5092960;28;9192;-60
2023/03/13 06:42:05;;;;;;;;;0.25;0.00;;;;;12.05;82.57;98201.34;5092614;28;8847;-60
2023/03/13 06:44:33;;;;;;;;;1.00;1.00;;;;;12.07;82.81;98207.34;5092782;28;8854;-60
2023/03/13 06:47:01;;;;;;;;;0.00;0.00;;;;;12.10;82.64;98209.66;5091220;28;8830;-60
2023/03/13 06:49:29;;;;;;;;;0.00;0.00;;;;;12.14;82.98;98197.63;5091622;28;9284;-60
2023/03/13 06:51:56;;;;;;;;;0.50;0.00;;;;;12.16;82.60;98207.09;5092078;28;8837;-60
2023/03/13 06:54:24;;;;;;;;;0.00;0.00;;;;;12.20;82.53;98199.59;5092331;28;8830;-60
2023/03/13 06:56:53;;;;;;;;;0.00;0.00;;;;;12.24;82.40;98204.41;5092327;28;8854;-61
2023/03/13 06:59:21;;;;;;;;;0.00;0.00;;;;;12.28;82.55;98188.88;5091571;28;8849;-60
2023/03/13 07:01:49;;;;;;;;;0.50;0.50;;;;;12.32;82.28;98199.00;5091314;28;8833;-60
2023/03/13 07:04:18;;;;;;;;;0.00;0.00;;;;;12.38;81.96;98197.50;5092374;28;8814;-60
2023/03/13 07:06:46;;;;;;;;;0.00;0.00;;;;;12.44;82.10;98191.44;5091766;28;8838;-60
2023/03/13 07:09:14;;;;;;;;;0.00;0.00;;;;;12.48;81.75;98204.28;5091907;28;8898;-60
2023/03/13 07:11:42;;;;;;;;;1.00;1.00;;;;;12.56;82.37;98208.72;5093267;28;8860;-60
2023/03/13 07:14:09;;;;;;;;;0.50;0.00;;;;;12.63;82.00;98229.22;5093359;28;9569;-60
2023/03/13 07:16:44;;;;;;;;;0.00;0.00;;;;;12.72;81.39;98206.78;5092559;28;8864;-61
2023/03/13 07:19:11;;;;;;;;;0.00;0.00;;;;;12.80;81.29;98203.22;5093176;28;8918;-61
2023/03/13 07:21:39;;;;;;;;;0.00;0.00;;;;;12.86;81.58;98207.84;5093847;28;8915;-61
2023/03/13 07:24:08;;;;;;;;;0.50;0.50;;;;;12.91;80.75;98218.84;5093979;28;8848;-58
2023/03/13 07:26:35;;;;;;;;;0.50;0.00;;;;;12.94;81.34;98214.00;5093607;28;8863;-60
2023/03/13 07:29:04;;;;;;;;;0.00;0.00;;;;;12.98;80.88;98207.28;5093468;28;8836;-58
2023/03/13 07:31:32;;;;;;;;;0.00;0.00;;;;;13.02;80.84;98202.41;5092395;28;9003;-58
2023/03/13 07:34:01;;;;;;;;;0.00;0.00;;;;;13.07;81.26;98208.03;5092565;28;8833;-61
2023/03/13 07:36:29;;;;;;;;;0.50;0.50;;;;;13.12;80.93;98201.13;5093056;28;8876;-61
2023/03/13 07:38:57;;;;;;;;;0.00;0.00;;;;;13.20;80.24;98208.28;5093604;28;8906;-61
2023/03/13 07:41:25;;;;;;;;;0.00;0.00;;;;;13.26;80.83;98199.50;5093843;28;8917;-61
2023/03/13 07:43:53;;;;;;;;;0.50;0.50;;;;;13.33;80.32;98206.63;5094140;28;8849;-61
2023/03/13 07:46:21;;;;;;;;;0.00;0.00;;;;;13.41;79.84;98195.00;5097047;28;8868;-60
2023/03/13 07:48:50;;;;;;;;;1.00;1.00;;;;;13.50;80.07;98209.94;5097381;28;8843;-61
2023/03/13 07:51:17;;;;;;;;;0.00;0.00;;;;;13.54;79.32;98197.91;5097258;28;8833;-61
2023/03/13 07:53:50;;;;;;;;;0.75;0.75;;;;;13.59;79.24;98180.28;5097134;28;8867;-61
2023/03/13 07:56:17;;;;;;;;;0.00;0.00;;;;;13.69;79.19;98174.66;5097654;28;8890;-61
2023/03/13 07:58:45;;;;;;;;;1.00;1.00;;;;;13.78;78.72;98173.53;5097421;28;8924;-61
2023/03/13 08:01:13;;;;;;;;;1.00;1.00;;;;;13.88;78.56;98171.44;5096302;28;8849;-61
2023/03/13 08:03:41;;;;;;;;;1.00;1.00;;;;;13.95;78.82;98172.31;5096065;28;8851;-61
2023/03/13 08:06:09;;;;;;;;;1.00;1.00;;;;;13.99;78.04;98181.66;5096490;28;8838;-61
2023/03/13 08:08:37;;;;;;;;;0.50;0.50;;;;;14.01;78.27;98166.22;5096074;28;8833;-61
2023/03/13 08:11:05;;;;;;;;;1.00;1.00;;;;;14.03;78.01;98167.72;5094379;28;8871;-61
2023/03/13 08:13:34;;;;;;;;;0.50;0.50;;;;;14.05;78.05;98167.53;5095506;28;8848;-61
2023/03/13 08:16:02;;;;;;;;;0.00;0.00;;;;;14.07;77.71;98152.09;5095715;28;8866;-60
2023/03/13 08:18:33;;;;;;;;;0.00;0.00;;;;;14.08;77.88;98162.63;5095512;28;8822;-61
2023/03/13 08:21:01;;;;;;;;;0.25;0.25;;;;;14.09;77.64;98158.09;5095781;28;8837;-61
2023/03/13 08:23:29;;;;;;;;;1.00;1.00;;;;;14.09;77.93;98155.41;5095144;28;8859;-60
2023/03/13 08:25:57;;;;;;;;;1.00;1.00;;;;;14.07;77.73;98152.09;5097111;28;8975;-61
2023/03/13 08:28:25;;;;;;;;;0.50;0.50;;;;;14.06;77.85;98143.25;5096889;28;8910;-61
2023/03/13 08:30:52;;;;;;;;;0.75;0.75;;;;;14.08;77.67;98140.38;5096840;28;9499;-61
2023/03/13 08:33:20;;;;;;;;;0.00;0.00;;;;;14.13;77.16;98152.16;5096404;28;8834;-59
2023/03/13 08:35:48;;;;;;;;;1.00;1.00;;;;;14.17;77.33;98150.78;5096328;28;8856;-61
2023/03/13 08:38:17;;;;;;;;;1.00;0.50;;;;;14.21;76.92;98140.56;5094174;28;8838;-61
2023/03/13 08:40:45;;;;;;;;;2.00;1.00;;;;;14.24;76.66;98121.44;5094730;28;8826;-61
2023/03/13 08:43:13;;;;;;;;;2.50;0.75;;;;;14.27;76.64;98139.81;5094694;28;8821;-61
2023/03/13 08:45:40;;;;;;;;;0.00;0.00;;;;;14.30;76.15;98131.41;5093235;28;8870;-61
2023/03/13 08:48:08;;;;;;;;;3.50;3.00;;;;;14.31;76.16;98143.75;5093870;28;8868;-61
2023/03/13 08:50:36;;;;;;;;;2.00;1.00;;;;;14.30;76.13;98139.44;5095520;28;8841;-61
2023/03/13 08:53:04;;;;;;;;;0.00;0.00;;;;;14.30;76.42;98150.13;5095259;28;8848;-61
2023/03/13 08:55:32;;;;;;;;;0.00;0.00;;;;;14.32;75.94;98143.59;5095570;28;8852;-60
2023/03/13 08:58:00;;;;;;;;;2.00;2.00;;;;;14.36;76.47;98152.88;5094017;28;8844;-61
2023/03/13 09:00:28;;;;;;;;;1.00;1.00;;;;;14.40;75.65;98156.84;5093989;28;8868;-60
2023/03/13 09:02:56;;;;;;;;;3.00;2.00;;;;;14.44;75.53;98168.00;5094135;28;8904;-61
2023/03/13 09:05:23;;;;;;;;;1.75;1.75;;;;;14.43;75.81;98185.09;5093979;28;8959;-61
2023/03/13 09:07:51;;;;;;;;;2.00;1.00;;;;;14.41;75.59;98166.53;5094002;28;8955;-61
2023/03/13 09:10:19;;;;;;;;;1.00;1.00;;;;;14.39;75.94;98162.38;5094907;28;9596;-60
2023/03/13 09:12:48;;;;;;;;;3.00;3.00;;;;;14.36;76.02;98173.50;5095166;28;8836;-60
2023/03/13 09:15:16;;;;;;;;;2.50;0.50;;;;;14.35;75.22;98159.25;5094997;28;8868;-60
2023/03/13 09:17:44;;;;;;;;;2.00;2.00;;;;;14.37;75.82;98162.59;5095028;28;8821;-61
2023/03/13 09:20:11;;;;;;;;;0.00;0.00;;;;;14.36;75.16;98163.59;5095001;28;8887;-61
2023/03/13 09:22:39;;;;;;;;;3.50;3.50;;;;;14.34;75.69;98170.19;5095059;28;8860;-61
2023/03/13 09:25:07;;;;;;;;;0.50;0.00;;;;;14.31;76.01;98167.84;5095934;28;8841;-60
2023/03/13 09:27:36;;;;;;;;;4.00;3.75;;;;;14.27;75.78;98163.91;5095096;28;8933;-60
2023/03/13 09:30:03;;;;;;;;;3.00;3.00;;;;;14.23;76.22;98165.28;5095531;28;8844;-61
2023/03/13 09:32:32;;;;;;;;;1.50;1.50;;;;;14.20;76.62;98158.47;5095056;28;8829;-60
2023/03/13 09:34:59;;;;;;;;;2.00;0.00;;;;;14.21;76.19;98162.78;5095519;28;8951;-61
2023/03/13 09:37:27;;;;;;;;;2.00;1.00;;;;;14.23;76.36;98170.66;5094641;28;8865;-61
2023/03/13 09:39:56;;;;;;;;;2.50;1.00;;;;;14.28;76.22;98153.00;5093632;28;8994;-61
2023/03/13 09:42:24;;;;;;;;;4.00;4.00;;;;;14.35;76.43;98142.38;5093193;28;8871;-61
2023/03/13 09:44:52;;;;;;;;;3.75;3.00;;;;;14.48;75.77;98147.88;5092586;28;8856;-61
2023/03/13 09:47:20;;;;;;;;;2.50;2.50;;;;;14.74;75.12;98126.69;5091986;28;8837;-61
2023/03/13 09:49:48;;;;;;;;;3.60;3.00;;;;;14.93;75.16;98134.06;5092494;28;8845;-61
2023/03/13 09:52:16;;;;;;;;;4.60;3.80;;;;;14.97;74.45;98130.81;5092400;28;8825;-61
2023/03/13 09:54:44;;;;;;;;;2.60;2.60;;;;;14.90;74.87;98127.25;5093312;28;8849;-60
2023/03/13 09:57:12;;;;;;;;;3.80;3.80;;;;;14.77;75.43;98132.50;5093873;28;8836;-61
2023/03/13 09:59:42;;;;;;;;;3.60;3.00;;;;;14.75;75.41;98131.88;5094075;28;9530;-61
2023/03/13 10:02:10;;;;;;;;;3.20;3.00;;;;;14.75;75.49;98129.19;5092857;28;8833;-61
2023/03/13 10:04:38;;;;;;;;;1.00;1.00;;;;;14.83;75.38;98125.53;5093162;28;8888;-61
2023/03/13 10:07:08;;;;;;;;;0.00;0.00;;;;;15.10;75.04;98128.22;5093286;28;8838;-61
2023/03/13 10:09:36;;;;;;;;;4.00;4.00;;;;;15.43;74.20;98110.56;5092722;28;8899;-61
2023/03/13 10:12:04;;;;;;;;;4.80;3.80;;;;;15.77;73.27;98139.22;5093194;28;8841;-61
2023/03/13 10:14:32;;;;;;;;;1.00;1.00;;;;;16.06;72.47;98088.75;5092731;28;8854;-61
2023/03/13 10:17:00;;;;;;;;;3.00;1.40;;;;;16.23;72.47;98092.72;5093153;28;8834;-61
2023/03/13 10:19:28;;;;;;;;;3.40;3.40;;;;;16.50;71.63;98094.47;5093316;28;8931;-59
2023/03/13 10:21:56;;;;;;;;;1.80;1.80;;;;;16.75;70.69;98082.09;5093407;28;8853;-62
2023/03/13 10:24:24;;;;;;;;;3.00;1.00;;;;;16.95;70.36;98075.66;5092824;28;8865;-62
2023/03/13 10:26:52;;;;;;;;;1.40;0.80;;;;;17.20;69.50;98081.25;5093052;28;8814;-61
2023/03/13 10:29:20;;;;;;;;;1.80;1.80;;;;;17.31;69.21;98078.72;5092623;28;8856;-58
2023/03/13 10:31:48;;;;;;;;;3.00;1.80;;;;;17.43;69.12;98095.09;5092789;28;8826;-61
2023/03/13 10:34:16;;;;;;;;;1.00;0.80;;;;;17.39;69.29;98080.44;5092798;28;8922;-61
2023/03/13 10:36:44;;;;;;;;;1.00;1.00;;;;;17.14;69.67;98098.22;5092739;28;8838;-60
2023/03/13 10:39:13;;;;;;;;;2.20;1.00;;;;;17.37;69.09;98077.94;5093087;28;8864;-61
2023/03/13 10:41:41;;;;;;;;;1.00;1.00;;;;;17.51;68.25;98071.50;5093051;28;8892;-61
2023/03/13 10:44:09;;;;;;;;;1.00;1.00;;;;;17.98;67.75;98086.44;5092537;28;8830;-61
2023/03/13 10:46:37;;;;;;;;;1.20;1.20;;;;;18.95;65.05;98060.72;5092852;28;8959;-61
2023/03/13 10:49:05;;;;;;;;;0.60;0.60;;;;;19.67;63.42;98050.06;5093308;28;8834;-62
2023/03/13 10:51:33;;;;;;;;;1.00;1.00;;;;;19.99;62.52;98052.38;5092955;28;8842;-61
2023/03/13 10:54:01;;;;;;;;;3.80;3.00;;;;;20.57;61.25;98047.22;5093156;28;8931;-60
2023/03/13 10:56:29;;;;;;;;;0.40;0.40;;;;;20.32;62.46;98041.94;5091665;28;8850;-62
2023/03/13 10:58:57;;;;;;;;;3.00;1.00;;;;;19.76;63.09;98036.03;5090424;28;9627;-62
2023/03/13 11:01:26;;;;;;;;;1.00;1.00;;;;;19.16;64.49;98039.59;5090545;28;8857;-62
2023/03/13 11:03:54;;;;;;;;;0.40;0.40;;;;;18.78;65.34;98044.28;5090894;28;9541;-61
2023/03/13 11:06:22;;;;;;;;;1.00;1.00;;;;;18.49;65.74;98026.06;5090626;28;9003;-61
2023/03/13 11:08:50;;;;;;;;;0.00;0.00;;;;;18.28;65.47;98036.34;5092080;28;8857;-61
2023/03/13 11:11:18;;;;;;;;;0.60;0.60;;;;;18.48;64.63;98051.38;5092692;28;8829;-61
2023/03/13 11:13:46;;;;;;;;;1.40;1.00;;;;;18.59;64.77;98042.56;5092872;28;8868;-60
2023/03/13 11:16:14;;;;;;;;;0.00;0.00;;;;;18.39;64.25;98058.06;5092672;28;8933;-61
2023/03/13 11:18:42;;;;;;;;;1.00;1.00;;;;;18.53;64.17;98051.50;5090345;28;8841;-58
2023/03/13 11:21:10;;;;;;;;;0.80;0.80;;;;;18.43;63.61;98037.69;5089666;28;8845;-61
2023/03/13 11:23:45;;;;;;;;;1.00;1.00;;;;;18.64;62.82;98021.16;5089508;28;9544;-60
2023/03/13 11:26:13;;;;;;;;;1.80;1.00;;;;;18.96;61.65;98006.56;5089865;28;8855;-62
2023/03/13 11:28:41;;;;;;;;;1.00;1.00;;;;;19.05;61.84;98012.50;5090636;28;8840;-61
2023/03/13 11:31:09;;;;;;;;;1.00;1.00;;;;;18.88;62.07;98014.94;5090501;28;9541;-60
2023/03/13 11:33:37;;;;;;;;;1.00;1.00;;;;;18.62;62.45;98011.63;5090432;28;8857;-61
2023/03/13 11:36:05;;;;;;;;;2.60;1.00;;;;;18.54;62.38;98012.75;5090972;28;8841;-61
2023/03/13 11:38:33;;;;;;;;;0.00;0.00;;;;;18.35;62.47;98018.25;5091584;28;8841;-60
2023/03/13 11:41:01;;;;;;;;;1.00;0.60;;;;;18.30;62.88;97999.25;5091106;28;8921;-59
2023/03/13 11:43:30;;;;;;;;;0.00;0.00;;;;;18.41;62.26;97999.38;5092159;28;9498;-60